<?xml version="1.0" encoding="UTF-8" standalone="no" ?>
<gpx xmlns="http://www.topografix.com/GPX/1/1" xmlns:xsi="http://www.w3.org/2001/XMLSchema-instance" xsi:schemaLocation="http://www.topografix.com/GPX/1/1 http://www.topografix.com/GPX/1/1/gpx.xsd" version="1.1" creator="VisuGPX - https://www.visugpx.com">
  <metadata>
    <name>Chapelle Notre Dame des Auzils</name>
    <desc><![CDATA[2017-06 - Chapelle Notre Dame des Auzils

[b]album[/b] : [url]https://goo.gl/photos/RvKzS38fCHgRKECV6[/url]
[img]https://2.bp.blogspot.com/-IJ51geHwPts/WTWR_xihECI/AAAAAAAAUWA/5EU30-AqB-MY191WFCIPPlJBCnRZN1OCgCLcB/s1600/2017-06-04_chapelle-des-auzils_i.JPG[/img]
[b]Idées de randonnées dans la même région[/b]
Parcours : [url]https://www.visugpx.com/membres/24856/littoral/[/url]
Photos : [url]https://jcvertygo.blogspot.com/p/littoral.html[/url]]]></desc>
  </metadata>
  <trk>
    <name><![CDATA[Chapelle Notre Dame des Auzils_1]]></name>
    <trkseg>
      <trkpt lat="43.13643" lon="3.09915">
        <ele>53.1</ele>
        <time>2017-06-04T16:46:53Z</time>
      </trkpt>
      <trkpt lat="43.13644" lon="3.09914">
        <ele>53.1</ele>
        <time>2017-06-04T16:46:58Z</time>
      </trkpt>
      <trkpt lat="43.13643" lon="3.09911">
        <ele>53.1</ele>
        <time>2017-06-04T16:47:04Z</time>
      </trkpt>
      <trkpt lat="43.13644" lon="3.09908">
        <ele>53.1</ele>
        <time>2017-06-04T16:47:09Z</time>
      </trkpt>
      <trkpt lat="43.13646" lon="3.09904">
        <ele>45.385563501666</ele>
        <time>2017-06-04T16:47:13Z</time>
      </trkpt>
      <trkpt lat="43.13639" lon="3.09886">
        <ele>44.623339461059</ele>
        <time>2017-06-04T16:47:39Z</time>
      </trkpt>
      <trkpt lat="43.13636" lon="3.09884">
        <ele>44.623339461059</ele>
        <time>2017-06-04T16:47:50Z</time>
      </trkpt>
      <trkpt lat="43.13633" lon="3.09881">
        <ele>44.623339461059</ele>
        <time>2017-06-04T16:47:54Z</time>
      </trkpt>
      <trkpt lat="43.13629" lon="3.09878">
        <ele>44.268375228796</ele>
        <time>2017-06-04T16:48:03Z</time>
      </trkpt>
      <trkpt lat="43.13627" lon="3.09877">
        <ele>44.268375228796</ele>
        <time>2017-06-04T16:48:08Z</time>
      </trkpt>
      <trkpt lat="43.13627" lon="3.09875">
        <ele>44.268375228796</ele>
        <time>2017-06-04T16:48:13Z</time>
      </trkpt>
      <trkpt lat="43.13621" lon="3.09868">
        <ele>44.152978172001</ele>
        <time>2017-06-04T16:48:31Z</time>
      </trkpt>
      <trkpt lat="43.13617" lon="3.09864">
        <ele>44.152978172001</ele>
        <time>2017-06-04T16:48:41Z</time>
      </trkpt>
      <trkpt lat="43.13608" lon="3.0985">
        <ele>44.137613109751</ele>
        <time>2017-06-04T16:48:48Z</time>
      </trkpt>
      <trkpt lat="43.13604" lon="3.09847">
        <ele>44.137613109751</ele>
        <time>2017-06-04T16:48:53Z</time>
      </trkpt>
      <trkpt lat="43.13598" lon="3.09841">
        <ele>44.172235505773</ele>
        <time>2017-06-04T16:48:58Z</time>
      </trkpt>
      <trkpt lat="43.13593" lon="3.09836">
        <ele>44.172235505773</ele>
        <time>2017-06-04T16:49:12Z</time>
      </trkpt>
      <trkpt lat="43.13584" lon="3.09822">
        <ele>44.28906782506</ele>
        <time>2017-06-04T16:49:13Z</time>
      </trkpt>
      <trkpt lat="43.13582" lon="3.09815">
        <ele>44.28906782506</ele>
        <time>2017-06-04T16:49:18Z</time>
      </trkpt>
      <trkpt lat="43.13577" lon="3.09811">
        <ele>44.538858933982</ele>
        <time>2017-06-04T16:49:23Z</time>
      </trkpt>
      <trkpt lat="43.13573" lon="3.09806">
        <ele>44.538858933982</ele>
        <time>2017-06-04T16:49:28Z</time>
      </trkpt>
      <trkpt lat="43.13558" lon="3.09783">
        <ele>44.976255965896</ele>
        <time>2017-06-04T16:49:52Z</time>
      </trkpt>
      <trkpt lat="43.13555" lon="3.09779">
        <ele>44.976255965896</ele>
        <time>2017-06-04T16:49:53Z</time>
      </trkpt>
      <trkpt lat="43.13534" lon="3.09683">
        <ele>46.010159162417</ele>
        <time>2017-06-04T16:51:06Z</time>
      </trkpt>
      <trkpt lat="43.13541" lon="3.09636">
        <ele>47.185509591335</ele>
        <time>2017-06-04T16:51:43Z</time>
      </trkpt>
      <trkpt lat="43.1354" lon="3.09628">
        <ele>47.185509591335</ele>
        <time>2017-06-04T16:51:48Z</time>
      </trkpt>
      <trkpt lat="43.13541" lon="3.09618">
        <ele>48.304447632973</ele>
        <time>2017-06-04T16:52:05Z</time>
      </trkpt>
      <trkpt lat="43.13545" lon="3.0961">
        <ele>48.304447632973</ele>
        <time>2017-06-04T16:52:23Z</time>
      </trkpt>
      <trkpt lat="43.13545" lon="3.09605">
        <ele>49.283179826351</ele>
        <time>2017-06-04T16:52:33Z</time>
      </trkpt>
      <trkpt lat="43.13546" lon="3.09606">
        <ele>49.283179826351</ele>
        <time>2017-06-04T16:52:38Z</time>
      </trkpt>
      <trkpt lat="43.13546" lon="3.09594">
        <ele>50.179254241883</ele>
        <time>2017-06-04T16:53:11Z</time>
      </trkpt>
      <trkpt lat="43.13542" lon="3.09588">
        <ele>50.179254241883</ele>
        <time>2017-06-04T16:53:29Z</time>
      </trkpt>
      <trkpt lat="43.13546" lon="3.09572">
        <ele>50.814429168352</ele>
        <time>2017-06-04T16:53:50Z</time>
      </trkpt>
      <trkpt lat="43.13555" lon="3.09562">
        <ele>51.378592797601</ele>
        <time>2017-06-04T16:54:06Z</time>
      </trkpt>
      <trkpt lat="43.13562" lon="3.09554">
        <ele>51.378592797601</ele>
        <time>2017-06-04T16:54:18Z</time>
      </trkpt>
      <trkpt lat="43.13596" lon="3.09515">
        <ele>52.304408829545</ele>
        <time>2017-06-04T16:55:09Z</time>
      </trkpt>
      <trkpt lat="43.13603" lon="3.09501">
        <ele>53.163780624346</ele>
        <time>2017-06-04T16:55:10Z</time>
      </trkpt>
      <trkpt lat="43.1361" lon="3.09493">
        <ele>53.163780624346</ele>
        <time>2017-06-04T16:55:20Z</time>
      </trkpt>
      <trkpt lat="43.13612" lon="3.0949">
        <ele>53.978679729123</ele>
        <time>2017-06-04T16:55:22Z</time>
      </trkpt>
      <trkpt lat="43.13639" lon="3.09461">
        <ele>54.847534186824</ele>
        <time>2017-06-04T16:56:03Z</time>
      </trkpt>
      <trkpt lat="43.13641" lon="3.09459">
        <ele>54.847534186824</ele>
        <time>2017-06-04T16:56:03Z</time>
      </trkpt>
      <trkpt lat="43.13651" lon="3.09444">
        <ele>55.840587408513</ele>
        <time>2017-06-04T16:56:24Z</time>
      </trkpt>
      <trkpt lat="43.13663" lon="3.09424">
        <ele>56.759941358849</ele>
        <time>2017-06-04T16:56:43Z</time>
      </trkpt>
      <trkpt lat="43.13676" lon="3.09408">
        <ele>57.688264926584</ele>
        <time>2017-06-04T16:57:01Z</time>
      </trkpt>
      <trkpt lat="43.13679" lon="3.09409">
        <ele>57.688264926584</ele>
        <time>2017-06-04T16:57:03Z</time>
      </trkpt>
      <trkpt lat="43.13679" lon="3.09411">
        <ele>57.688264926584</ele>
        <time>2017-06-04T16:57:13Z</time>
      </trkpt>
      <trkpt lat="43.13685" lon="3.09414">
        <ele>58.579744956516</ele>
        <time>2017-06-04T16:58:09Z</time>
      </trkpt>
      <trkpt lat="43.13683" lon="3.09406">
        <ele>58.579744956516</ele>
        <time>2017-06-04T16:58:37Z</time>
      </trkpt>
      <trkpt lat="43.13692" lon="3.09415">
        <ele>59.481748137469</ele>
        <time>2017-06-04T16:59:04Z</time>
      </trkpt>
      <trkpt lat="43.1371" lon="3.0943">
        <ele>60.709547864452</ele>
        <time>2017-06-04T16:59:52Z</time>
      </trkpt>
      <trkpt lat="43.13713" lon="3.09429">
        <ele>60.709547864452</ele>
        <time>2017-06-04T16:59:55Z</time>
      </trkpt>
      <trkpt lat="43.13723" lon="3.09445">
        <ele>61.987593552016</ele>
        <time>2017-06-04T17:01:09Z</time>
      </trkpt>
      <trkpt lat="43.13726" lon="3.0945">
        <ele>61.987593552016</ele>
        <time>2017-06-04T17:01:18Z</time>
      </trkpt>
      <trkpt lat="43.13721" lon="3.09426">
        <ele>63.635333066754</ele>
        <time>2017-06-04T17:03:00Z</time>
      </trkpt>
      <trkpt lat="43.13714" lon="3.09425">
        <ele>63.635333066754</ele>
        <time>2017-06-04T17:03:39Z</time>
      </trkpt>
      <trkpt lat="43.1371" lon="3.09428">
        <ele>64.875585173153</ele>
        <time>2017-06-04T17:04:09Z</time>
      </trkpt>
      <trkpt lat="43.13706" lon="3.09426">
        <ele>64.875585173153</ele>
        <time>2017-06-04T17:04:09Z</time>
      </trkpt>
      <trkpt lat="43.137" lon="3.09419">
        <ele>65.924672540545</ele>
        <time>2017-06-04T17:04:40Z</time>
      </trkpt>
      <trkpt lat="43.13688" lon="3.0941">
        <ele>66.839439475162</ele>
        <time>2017-06-04T17:04:40Z</time>
      </trkpt>
      <trkpt lat="43.13698" lon="3.0941">
        <ele>67.588025775253</ele>
        <time>2017-06-04T17:05:05Z</time>
      </trkpt>
      <trkpt lat="43.13701" lon="3.09407">
        <ele>67.588025775253</ele>
        <time>2017-06-04T17:05:05Z</time>
      </trkpt>
      <trkpt lat="43.1371" lon="3.09396">
        <ele>68.168061486984</ele>
        <time>2017-06-04T17:05:18Z</time>
      </trkpt>
      <trkpt lat="43.13712" lon="3.09392">
        <ele>68.168061486984</ele>
        <time>2017-06-04T17:05:23Z</time>
      </trkpt>
      <trkpt lat="43.13719" lon="3.09384">
        <ele>68.646332114552</ele>
        <time>2017-06-04T17:05:44Z</time>
      </trkpt>
      <trkpt lat="43.13729" lon="3.09365">
        <ele>69.126988444919</ele>
        <time>2017-06-04T17:05:58Z</time>
      </trkpt>
      <trkpt lat="43.13764" lon="3.0933">
        <ele>69.792201640286</ele>
        <time>2017-06-04T17:07:10Z</time>
      </trkpt>
      <trkpt lat="43.13774" lon="3.09346">
        <ele>70.447810532691</ele>
        <time>2017-06-04T17:07:49Z</time>
      </trkpt>
      <trkpt lat="43.13779" lon="3.09357">
        <ele>71.208018279663</ele>
        <time>2017-06-04T17:08:07Z</time>
      </trkpt>
      <trkpt lat="43.13784" lon="3.09372">
        <ele>72.352431677805</ele>
        <time>2017-06-04T17:08:32Z</time>
      </trkpt>
      <trkpt lat="43.13787" lon="3.09376">
        <ele>72.352431677805</ele>
        <time>2017-06-04T17:08:32Z</time>
      </trkpt>
      <trkpt lat="43.13787" lon="3.09377">
        <ele>72.352431677805</ele>
        <time>2017-06-04T17:08:33Z</time>
      </trkpt>
      <trkpt lat="43.13791" lon="3.09381">
        <ele>73.427126388525</ele>
        <time>2017-06-04T17:08:46Z</time>
      </trkpt>
      <trkpt lat="43.13794" lon="3.09384">
        <ele>73.427126388525</ele>
        <time>2017-06-04T17:08:49Z</time>
      </trkpt>
      <trkpt lat="43.138" lon="3.09392">
        <ele>74.652126848382</ele>
        <time>2017-06-04T17:08:59Z</time>
      </trkpt>
      <trkpt lat="43.13802" lon="3.09393">
        <ele>74.652126848382</ele>
        <time>2017-06-04T17:09:05Z</time>
      </trkpt>
      <trkpt lat="43.13817" lon="3.09399">
        <ele>76.060974022286</ele>
        <time>2017-06-04T17:09:35Z</time>
      </trkpt>
      <trkpt lat="43.13819" lon="3.09398">
        <ele>76.060974022286</ele>
        <time>2017-06-04T17:09:38Z</time>
      </trkpt>
      <trkpt lat="43.13818" lon="3.09369">
        <ele>77.684556288025</ele>
        <time>2017-06-04T17:10:36Z</time>
      </trkpt>
      <trkpt lat="43.13811" lon="3.09339">
        <ele>79.69844119891</ele>
        <time>2017-06-04T17:11:09Z</time>
      </trkpt>
      <trkpt lat="43.13811" lon="3.09332">
        <ele>79.69844119891</ele>
        <time>2017-06-04T17:11:09Z</time>
      </trkpt>
      <trkpt lat="43.13807" lon="3.09327">
        <ele>81.673185864877</ele>
        <time>2017-06-04T17:11:44Z</time>
      </trkpt>
      <trkpt lat="43.13808" lon="3.09299">
        <ele>83.889365682485</ele>
        <time>2017-06-04T17:12:09Z</time>
      </trkpt>
      <trkpt lat="43.13808" lon="3.09296">
        <ele>83.889365682485</ele>
        <time>2017-06-04T17:12:09Z</time>
      </trkpt>
      <trkpt lat="43.13809" lon="3.09259">
        <ele>87.925816742354</ele>
        <time>2017-06-04T17:13:38Z</time>
      </trkpt>
      <trkpt lat="43.13811" lon="3.09255">
        <ele>87.925816742354</ele>
        <time>2017-06-04T17:13:47Z</time>
      </trkpt>
      <trkpt lat="43.13822" lon="3.09269">
        <ele>92.851061965848</ele>
        <time>2017-06-04T17:15:18Z</time>
      </trkpt>
      <trkpt lat="43.1382" lon="3.09282">
        <ele>98.4958178344</ele>
        <time>2017-06-04T17:17:38Z</time>
      </trkpt>
      <trkpt lat="43.13825" lon="3.09286">
        <ele>98.4958178344</ele>
        <time>2017-06-04T17:18:44Z</time>
      </trkpt>
      <trkpt lat="43.13828" lon="3.0929">
        <ele>103.65865283362</ele>
        <time>2017-06-04T17:18:44Z</time>
      </trkpt>
      <trkpt lat="43.13833" lon="3.09299">
        <ele>103.65865283362</ele>
        <time>2017-06-04T17:20:06Z</time>
      </trkpt>
      <trkpt lat="43.13834" lon="3.09286">
        <ele>108.46349735576</ele>
        <time>2017-06-04T17:21:08Z</time>
      </trkpt>
      <trkpt lat="43.13834" lon="3.09287">
        <ele>108.46349735576</ele>
        <time>2017-06-04T17:21:08Z</time>
      </trkpt>
      <trkpt lat="43.13818" lon="3.09275">
        <ele>112.75671808725</ele>
        <time>2017-06-04T17:22:01Z</time>
      </trkpt>
      <trkpt lat="43.13819" lon="3.09274">
        <ele>112.75671808725</ele>
        <time>2017-06-04T17:22:02Z</time>
      </trkpt>
      <trkpt lat="43.13819" lon="3.09275">
        <ele>112.75671808725</ele>
        <time>2017-06-04T17:22:03Z</time>
      </trkpt>
      <trkpt lat="43.1382" lon="3.09275">
        <ele>112.75671808725</ele>
        <time>2017-06-04T17:22:08Z</time>
      </trkpt>
      <trkpt lat="43.13811" lon="3.09276">
        <ele>116.62635992833</ele>
        <time>2017-06-04T17:22:33Z</time>
      </trkpt>
      <trkpt lat="43.13809" lon="3.09277">
        <ele>116.62635992833</ele>
        <time>2017-06-04T17:22:38Z</time>
      </trkpt>
      <trkpt lat="43.13816" lon="3.09273">
        <ele>116.62635992833</ele>
        <time>2017-06-04T17:24:17Z</time>
      </trkpt>
      <trkpt lat="43.13816" lon="3.09272">
        <ele>120.3830390205</ele>
        <time>2017-06-04T17:24:23Z</time>
      </trkpt>
      <trkpt lat="43.13816" lon="3.09279">
        <ele>120.3830390205</ele>
        <time>2017-06-04T17:24:28Z</time>
      </trkpt>
      <trkpt lat="43.13809" lon="3.09289">
        <ele>123.8770688522</ele>
        <time>2017-06-04T17:25:01Z</time>
      </trkpt>
      <trkpt lat="43.13813" lon="3.09286">
        <ele>123.8770688522</ele>
        <time>2017-06-04T17:26:28Z</time>
      </trkpt>
      <trkpt lat="43.13822" lon="3.09274">
        <ele>126.98749276718</ele>
        <time>2017-06-04T17:28:40Z</time>
      </trkpt>
      <trkpt lat="43.13851" lon="3.09286">
        <ele>129.63529605828</ele>
        <time>2017-06-04T17:29:17Z</time>
      </trkpt>
      <trkpt lat="43.13852" lon="3.09286">
        <ele>129.63529605828</ele>
        <time>2017-06-04T17:29:24Z</time>
      </trkpt>
      <trkpt lat="43.13894" lon="3.09347">
        <ele>132.20005587439</ele>
        <time>2017-06-04T17:30:25Z</time>
      </trkpt>
      <trkpt lat="43.13896" lon="3.0935">
        <ele>132.20005587439</ele>
        <time>2017-06-04T17:30:28Z</time>
      </trkpt>
      <trkpt lat="43.139" lon="3.09355">
        <ele>132.20005587439</ele>
        <time>2017-06-04T17:30:33Z</time>
      </trkpt>
      <trkpt lat="43.13906" lon="3.09361">
        <ele>134.47665605372</ele>
        <time>2017-06-04T17:30:49Z</time>
      </trkpt>
      <trkpt lat="43.13919" lon="3.0936">
        <ele>136.50222946211</ele>
        <time>2017-06-04T17:30:53Z</time>
      </trkpt>
      <trkpt lat="43.13923" lon="3.09363">
        <ele>136.50222946211</ele>
        <time>2017-06-04T17:30:58Z</time>
      </trkpt>
      <trkpt lat="43.13928" lon="3.09365">
        <ele>138.35639576697</ele>
        <time>2017-06-04T17:31:03Z</time>
      </trkpt>
      <trkpt lat="43.13931" lon="3.09366">
        <ele>138.35639576697</ele>
        <time>2017-06-04T17:31:08Z</time>
      </trkpt>
      <trkpt lat="43.13953" lon="3.09387">
        <ele>140.18694369558</ele>
        <time>2017-06-04T17:31:57Z</time>
      </trkpt>
      <trkpt lat="43.13974" lon="3.09425">
        <ele>141.95148835565</ele>
        <time>2017-06-04T17:32:31Z</time>
      </trkpt>
      <trkpt lat="43.13978" lon="3.09432">
        <ele>141.95148835565</ele>
        <time>2017-06-04T17:32:31Z</time>
      </trkpt>
      <trkpt lat="43.14036" lon="3.09463">
        <ele>143.86273384138</ele>
        <time>2017-06-04T17:34:33Z</time>
      </trkpt>
      <trkpt lat="43.14041" lon="3.09464">
        <ele>143.86273384138</ele>
        <time>2017-06-04T17:34:40Z</time>
      </trkpt>
      <trkpt lat="43.14049" lon="3.09465">
        <ele>145.52533496531</ele>
        <time>2017-06-04T17:34:58Z</time>
      </trkpt>
      <trkpt lat="43.14064" lon="3.0947">
        <ele>147.03371601916</ele>
        <time>2017-06-04T17:35:13Z</time>
      </trkpt>
      <trkpt lat="43.14068" lon="3.09473">
        <ele>147.03371601916</ele>
        <time>2017-06-04T17:35:18Z</time>
      </trkpt>
      <trkpt lat="43.14073" lon="3.09475">
        <ele>148.38679042896</ele>
        <time>2017-06-04T17:35:23Z</time>
      </trkpt>
      <trkpt lat="43.14078" lon="3.09476">
        <ele>148.38679042896</ele>
        <time>2017-06-04T17:35:28Z</time>
      </trkpt>
      <trkpt lat="43.14084" lon="3.09478">
        <ele>149.55466886746</ele>
        <time>2017-06-04T17:35:33Z</time>
      </trkpt>
      <trkpt lat="43.14088" lon="3.09479">
        <ele>149.55466886746</ele>
        <time>2017-06-04T17:35:38Z</time>
      </trkpt>
      <trkpt lat="43.14104" lon="3.0949">
        <ele>150.46652249799</ele>
        <time>2017-06-04T17:36:03Z</time>
      </trkpt>
      <trkpt lat="43.14121" lon="3.09499">
        <ele>151.11626273072</ele>
        <time>2017-06-04T17:36:39Z</time>
      </trkpt>
      <trkpt lat="43.1416" lon="3.09516">
        <ele>151.46977408419</ele>
        <time>2017-06-04T17:37:25Z</time>
      </trkpt>
      <trkpt lat="43.14166" lon="3.09517">
        <ele>151.46977408419</ele>
        <time>2017-06-04T17:37:26Z</time>
      </trkpt>
      <trkpt lat="43.14167" lon="3.09518">
        <ele>151.46977408419</ele>
        <time>2017-06-04T17:37:26Z</time>
      </trkpt>
      <trkpt lat="43.14181" lon="3.0952">
        <ele>151.53998723396</ele>
        <time>2017-06-04T17:38:38Z</time>
      </trkpt>
      <trkpt lat="43.14187" lon="3.09522">
        <ele>151.53998723396</ele>
        <time>2017-06-04T17:38:43Z</time>
      </trkpt>
      <trkpt lat="43.14196" lon="3.09527">
        <ele>151.36850013498</ele>
        <time>2017-06-04T17:39:00Z</time>
      </trkpt>
      <trkpt lat="43.14344" lon="3.09565">
        <ele>151.32777556844</ele>
        <time>2017-06-04T17:41:44Z</time>
      </trkpt>
      <trkpt lat="43.14347" lon="3.09565">
        <ele>151.32777556844</ele>
        <time>2017-06-04T17:41:44Z</time>
      </trkpt>
      <trkpt lat="43.14351" lon="3.09565">
        <ele>151.32777556844</ele>
        <time>2017-06-04T17:41:48Z</time>
      </trkpt>
      <trkpt lat="43.14404" lon="3.09531">
        <ele>151.64495749668</ele>
        <time>2017-06-04T17:42:48Z</time>
      </trkpt>
      <trkpt lat="43.14415" lon="3.09533">
        <ele>151.9064343655</ele>
        <time>2017-06-04T17:43:00Z</time>
      </trkpt>
      <trkpt lat="43.14416" lon="3.09532">
        <ele>151.9064343655</ele>
        <time>2017-06-04T17:43:00Z</time>
      </trkpt>
      <trkpt lat="43.14419" lon="3.09532">
        <ele>151.9064343655</ele>
        <time>2017-06-04T17:43:10Z</time>
      </trkpt>
      <trkpt lat="43.14425" lon="3.09534">
        <ele>152.07775747436</ele>
        <time>2017-06-04T17:43:10Z</time>
      </trkpt>
      <trkpt lat="43.14474" lon="3.09546">
        <ele>152.66202332593</ele>
        <time>2017-06-04T17:44:08Z</time>
      </trkpt>
      <trkpt lat="43.14491" lon="3.09551">
        <ele>153.29981663872</ele>
        <time>2017-06-04T17:44:25Z</time>
      </trkpt>
      <trkpt lat="43.14499" lon="3.09555">
        <ele>153.29981663872</ele>
        <time>2017-06-04T17:44:25Z</time>
      </trkpt>
      <trkpt lat="43.14507" lon="3.09556">
        <ele>153.78872111617</ele>
        <time>2017-06-04T17:44:41Z</time>
      </trkpt>
      <trkpt lat="43.14514" lon="3.09558">
        <ele>153.78872111617</ele>
        <time>2017-06-04T17:44:41Z</time>
      </trkpt>
      <trkpt lat="43.14519" lon="3.09561">
        <ele>154.28820488021</ele>
        <time>2017-06-04T17:45:04Z</time>
      </trkpt>
      <trkpt lat="43.14478" lon="3.09548">
        <ele>154.77259610869</ele>
        <time>2017-06-04T17:46:33Z</time>
      </trkpt>
      <trkpt lat="43.1447" lon="3.09544">
        <ele>154.77259610869</ele>
        <time>2017-06-04T17:46:33Z</time>
      </trkpt>
      <trkpt lat="43.14458" lon="3.0954">
        <ele>155.03062405237</ele>
        <time>2017-06-04T17:46:45Z</time>
      </trkpt>
      <trkpt lat="43.14456" lon="3.0954">
        <ele>155.03062405237</ele>
        <time>2017-06-04T17:46:48Z</time>
      </trkpt>
      <trkpt lat="43.14445" lon="3.09536">
        <ele>155.19889356519</ele>
        <time>2017-06-04T17:47:05Z</time>
      </trkpt>
      <trkpt lat="43.14441" lon="3.09536">
        <ele>155.19889356519</ele>
        <time>2017-06-04T17:47:05Z</time>
      </trkpt>
      <trkpt lat="43.14396" lon="3.09536">
        <ele>154.899382034</ele>
        <time>2017-06-04T17:47:57Z</time>
      </trkpt>
      <trkpt lat="43.14388" lon="3.0954">
        <ele>154.899382034</ele>
        <time>2017-06-04T17:48:26Z</time>
      </trkpt>
      <trkpt lat="43.14356" lon="3.09565">
        <ele>154.24451081949</ele>
        <time>2017-06-04T17:48:58Z</time>
      </trkpt>
      <trkpt lat="43.14349" lon="3.09566">
        <ele>154.24451081949</ele>
        <time>2017-06-04T17:48:58Z</time>
      </trkpt>
      <trkpt lat="43.14279" lon="3.09543">
        <ele>152.84906011872</ele>
        <time>2017-06-04T17:50:25Z</time>
      </trkpt>
      <trkpt lat="43.14272" lon="3.0954">
        <ele>152.84906011872</ele>
        <time>2017-06-04T17:50:25Z</time>
      </trkpt>
      <trkpt lat="43.14257" lon="3.09534">
        <ele>151.19426827596</ele>
        <time>2017-06-04T17:50:43Z</time>
      </trkpt>
      <trkpt lat="43.14252" lon="3.09533">
        <ele>151.19426827596</ele>
        <time>2017-06-04T17:50:52Z</time>
      </trkpt>
      <trkpt lat="43.14242" lon="3.09531">
        <ele>149.45264798622</ele>
        <time>2017-06-04T17:51:17Z</time>
      </trkpt>
      <trkpt lat="43.14202" lon="3.09525">
        <ele>147.62554448775</ele>
        <time>2017-06-04T17:51:50Z</time>
      </trkpt>
      <trkpt lat="43.14192" lon="3.09525">
        <ele>145.87289782694</ele>
        <time>2017-06-04T17:51:50Z</time>
      </trkpt>
      <trkpt lat="43.14182" lon="3.09523">
        <ele>144.15507076742</ele>
        <time>2017-06-04T17:51:59Z</time>
      </trkpt>
      <trkpt lat="43.1416" lon="3.09512">
        <ele>142.33408967108</ele>
        <time>2017-06-04T17:52:29Z</time>
      </trkpt>
      <trkpt lat="43.14153" lon="3.09509">
        <ele>142.33408967108</ele>
        <time>2017-06-04T17:52:30Z</time>
      </trkpt>
      <trkpt lat="43.14088" lon="3.09472">
        <ele>140.49850191071</ele>
        <time>2017-06-04T17:53:39Z</time>
      </trkpt>
      <trkpt lat="43.14055" lon="3.09466">
        <ele>138.75902208425</ele>
        <time>2017-06-04T17:54:08Z</time>
      </trkpt>
      <trkpt lat="43.14025" lon="3.09458">
        <ele>137.05907826972</ele>
        <time>2017-06-04T17:54:38Z</time>
      </trkpt>
      <trkpt lat="43.14019" lon="3.09454">
        <ele>137.05907826972</ele>
        <time>2017-06-04T17:54:45Z</time>
      </trkpt>
      <trkpt lat="43.14002" lon="3.09446">
        <ele>135.43243225571</ele>
        <time>2017-06-04T17:55:04Z</time>
      </trkpt>
      <trkpt lat="43.13999" lon="3.09445">
        <ele>135.43243225571</ele>
        <time>2017-06-04T17:55:04Z</time>
      </trkpt>
      <trkpt lat="43.13962" lon="3.09391">
        <ele>133.79451328968</ele>
        <time>2017-06-04T17:56:08Z</time>
      </trkpt>
      <trkpt lat="43.13945" lon="3.09373">
        <ele>132.23982801905</ele>
        <time>2017-06-04T17:56:25Z</time>
      </trkpt>
      <trkpt lat="43.13927" lon="3.09364">
        <ele>130.78332207813</ele>
        <time>2017-06-04T17:56:50Z</time>
      </trkpt>
      <trkpt lat="43.13888" lon="3.09321">
        <ele>129.75563999784</ele>
        <time>2017-06-04T17:57:37Z</time>
      </trkpt>
      <trkpt lat="43.13887" lon="3.09317">
        <ele>129.75563999784</ele>
        <time>2017-06-04T17:57:40Z</time>
      </trkpt>
      <trkpt lat="43.13845" lon="3.0926">
        <ele>128.69715619441</ele>
        <time>2017-06-04T17:58:41Z</time>
      </trkpt>
      <trkpt lat="43.13845" lon="3.09259">
        <ele>128.69715619441</ele>
        <time>2017-06-04T17:58:43Z</time>
      </trkpt>
      <trkpt lat="43.13793" lon="3.0931">
        <ele>126.40300395124</ele>
        <time>2017-06-04T18:01:21Z</time>
      </trkpt>
      <trkpt lat="43.13797" lon="3.09314">
        <ele>126.40300395124</ele>
        <time>2017-06-04T18:01:25Z</time>
      </trkpt>
      <trkpt lat="43.13802" lon="3.09322">
        <ele>123.83721676789</ele>
        <time>2017-06-04T18:01:50Z</time>
      </trkpt>
      <trkpt lat="43.13804" lon="3.09326">
        <ele>123.83721676789</ele>
        <time>2017-06-04T18:01:50Z</time>
      </trkpt>
      <trkpt lat="43.13802" lon="3.09352">
        <ele>121.02800167777</ele>
        <time>2017-06-04T18:02:24Z</time>
      </trkpt>
      <trkpt lat="43.13804" lon="3.0936">
        <ele>121.02800167777</ele>
        <time>2017-06-04T18:02:24Z</time>
      </trkpt>
      <trkpt lat="43.13806" lon="3.09368">
        <ele>118.21825363626</ele>
        <time>2017-06-04T18:02:32Z</time>
      </trkpt>
      <trkpt lat="43.13806" lon="3.09372">
        <ele>118.21825363626</ele>
        <time>2017-06-04T18:02:36Z</time>
      </trkpt>
      <trkpt lat="43.13806" lon="3.09374">
        <ele>118.21825363626</ele>
        <time>2017-06-04T18:02:37Z</time>
      </trkpt>
      <trkpt lat="43.13806" lon="3.09376">
        <ele>118.21825363626</ele>
        <time>2017-06-04T18:02:40Z</time>
      </trkpt>
      <trkpt lat="43.13812" lon="3.09391">
        <ele>115.38754600124</ele>
        <time>2017-06-04T18:02:53Z</time>
      </trkpt>
      <trkpt lat="43.13791" lon="3.09376">
        <ele>112.37253637788</ele>
        <time>2017-06-04T18:04:32Z</time>
      </trkpt>
      <trkpt lat="43.13777" lon="3.09358">
        <ele>109.36824866933</ele>
        <time>2017-06-04T18:04:33Z</time>
      </trkpt>
      <trkpt lat="43.13765" lon="3.09348">
        <ele>106.41083564094</ele>
        <time>2017-06-04T18:05:00Z</time>
      </trkpt>
      <trkpt lat="43.13742" lon="3.09357">
        <ele>103.24499907196</ele>
        <time>2017-06-04T18:05:28Z</time>
      </trkpt>
      <trkpt lat="43.13728" lon="3.09378">
        <ele>99.793150914217</ele>
        <time>2017-06-04T18:06:02Z</time>
      </trkpt>
      <trkpt lat="43.13702" lon="3.09401">
        <ele>96.200195151952</ele>
        <time>2017-06-04T18:06:39Z</time>
      </trkpt>
      <trkpt lat="43.13697" lon="3.09409">
        <ele>96.200195151952</ele>
        <time>2017-06-04T18:06:53Z</time>
      </trkpt>
      <trkpt lat="43.13696" lon="3.09411">
        <ele>96.200195151952</ele>
        <time>2017-06-04T18:06:58Z</time>
      </trkpt>
      <trkpt lat="43.13697" lon="3.09414">
        <ele>92.456301455361</ele>
        <time>2017-06-04T18:07:03Z</time>
      </trkpt>
      <trkpt lat="43.13693" lon="3.09415">
        <ele>92.456301455361</ele>
        <time>2017-06-04T18:07:08Z</time>
      </trkpt>
      <trkpt lat="43.13684" lon="3.0942">
        <ele>88.408333380537</ele>
        <time>2017-06-04T18:07:19Z</time>
      </trkpt>
      <trkpt lat="43.13668" lon="3.09437">
        <ele>83.713168954737</ele>
        <time>2017-06-04T18:07:44Z</time>
      </trkpt>
      <trkpt lat="43.13665" lon="3.0944">
        <ele>83.713168954737</ele>
        <time>2017-06-04T18:07:44Z</time>
      </trkpt>
      <trkpt lat="43.13655" lon="3.09447">
        <ele>79.294126166058</ele>
        <time>2017-06-04T18:08:00Z</time>
      </trkpt>
      <trkpt lat="43.13649" lon="3.09449">
        <ele>79.294126166058</ele>
        <time>2017-06-04T18:08:00Z</time>
      </trkpt>
      <trkpt lat="43.13625" lon="3.09484">
        <ele>74.405487571273</ele>
        <time>2017-06-04T18:08:34Z</time>
      </trkpt>
      <trkpt lat="43.13611" lon="3.095">
        <ele>69.669071032962</ele>
        <time>2017-06-04T18:09:00Z</time>
      </trkpt>
      <trkpt lat="43.13572" lon="3.09546">
        <ele>64.478293207325</ele>
        <time>2017-06-04T18:09:49Z</time>
      </trkpt>
      <trkpt lat="43.13567" lon="3.09553">
        <ele>64.478293207325</ele>
        <time>2017-06-04T18:09:49Z</time>
      </trkpt>
      <trkpt lat="43.13557" lon="3.09561">
        <ele>59.699020974051</ele>
        <time>2017-06-04T18:10:07Z</time>
      </trkpt>
      <trkpt lat="43.13551" lon="3.09567">
        <ele>59.699020974051</ele>
        <time>2017-06-04T18:10:07Z</time>
      </trkpt>
      <trkpt lat="43.13534" lon="3.09589">
        <ele>55.382487820996</ele>
        <time>2017-06-04T18:10:30Z</time>
      </trkpt>
      <trkpt lat="43.13533" lon="3.09597">
        <ele>55.382487820996</ele>
        <time>2017-06-04T18:10:39Z</time>
      </trkpt>
      <trkpt lat="43.13533" lon="3.09597">
        <ele>55.382487820996</ele>
        <time>2017-06-04T18:10:39Z</time>
      </trkpt>
      <trkpt lat="43.13521" lon="3.09627">
        <ele>51.257461334513</ele>
        <time>2017-06-04T18:11:07Z</time>
      </trkpt>
      <trkpt lat="43.13521" lon="3.09628">
        <ele>51.257461334513</ele>
        <time>2017-06-04T18:11:08Z</time>
      </trkpt>
      <trkpt lat="43.13522" lon="3.0963">
        <ele>51.257461334513</ele>
        <time>2017-06-04T18:11:13Z</time>
      </trkpt>
      <trkpt lat="43.1353" lon="3.0964">
        <ele>47.561795571114</ele>
        <time>2017-06-04T18:11:23Z</time>
      </trkpt>
      <trkpt lat="43.13533" lon="3.09649">
        <ele>47.561795571114</ele>
        <time>2017-06-04T18:11:28Z</time>
      </trkpt>
      <trkpt lat="43.13536" lon="3.09662">
        <ele>44.240502202637</ele>
        <time>2017-06-04T18:11:38Z</time>
      </trkpt>
      <trkpt lat="43.13536" lon="3.09669">
        <ele>44.240502202637</ele>
        <time>2017-06-04T18:11:43Z</time>
      </trkpt>
      <trkpt lat="43.13535" lon="3.09685">
        <ele>41.327738400057</ele>
        <time>2017-06-04T18:11:53Z</time>
      </trkpt>
      <trkpt lat="43.13536" lon="3.0969">
        <ele>41.327738400057</ele>
        <time>2017-06-04T18:11:58Z</time>
      </trkpt>
      <trkpt lat="43.13537" lon="3.09704">
        <ele>38.767230332193</ele>
        <time>2017-06-04T18:12:08Z</time>
      </trkpt>
      <trkpt lat="43.13538" lon="3.09709">
        <ele>38.767230332193</ele>
        <time>2017-06-04T18:12:15Z</time>
      </trkpt>
      <trkpt lat="43.13549" lon="3.09758">
        <ele>36.5487953645</ele>
        <time>2017-06-04T18:12:49Z</time>
      </trkpt>
      <trkpt lat="43.13587" lon="3.09825">
        <ele>34.906759770053</ele>
        <time>2017-06-04T18:13:46Z</time>
      </trkpt>
      <trkpt lat="43.13588" lon="3.09827">
        <ele>34.906759770053</ele>
        <time>2017-06-04T18:13:51Z</time>
      </trkpt>
      <trkpt lat="43.13609" lon="3.09854">
        <ele>33.955485556265</ele>
        <time>2017-06-04T18:14:13Z</time>
      </trkpt>
      <trkpt lat="43.13612" lon="3.09859">
        <ele>33.955485556265</ele>
        <time>2017-06-04T18:14:18Z</time>
      </trkpt>
      <trkpt lat="43.1362" lon="3.09871">
        <ele>33.409665201728</ele>
        <time>2017-06-04T18:14:28Z</time>
      </trkpt>
      <trkpt lat="43.13623" lon="3.0988">
        <ele>33.409665201728</ele>
        <time>2017-06-04T18:14:33Z</time>
      </trkpt>
      <trkpt lat="43.13631" lon="3.09892">
        <ele>33.291841378891</ele>
        <time>2017-06-04T18:14:43Z</time>
      </trkpt>
      <trkpt lat="43.13636" lon="3.0989">
        <ele>33.291841378891</ele>
        <time>2017-06-04T18:14:48Z</time>
      </trkpt>
      <trkpt lat="43.13641" lon="3.09893">
        <ele>33.376540137647</ele>
        <time>2017-06-04T18:14:53Z</time>
      </trkpt>
    </trkseg>
  </trk>
</gpx>